createdAt,value
2019-02-08T12:49:39.756Z,10.40
2019-02-08T12:54:45.585Z,10.70
2019-02-08T12:59:53.613Z,10.70
2019-02-08T13:05:07.763Z,10.60
2019-02-08T13:10:15.849Z,10.60
2019-02-08T13:15:23.334Z,10.50
2019-02-08T13:20:28.162Z,10.50
2019-02-08T13:25:34.352Z,10.50
2019-02-08T13:47:48.601Z,10.90
2019-02-08T13:52:53.596Z,10.80
2019-02-08T13:58:01.600Z,10.70
2019-02-08T14:03:08.304Z,10.80
2019-02-08T14:08:13.301Z,10.70
2019-02-08T14:13:19.193Z,10.70
2019-02-08T14:18:28.454Z,10.80
2019-02-08T14:23:31.086Z,10.70
2019-02-08T14:28:35.804Z,10.70
2019-02-08T14:33:40.560Z,10.70
2019-02-08T14:38:47.346Z,10.70
2019-02-08T14:43:52.357Z,10.60
2019-02-08T14:49:00.366Z,10.50
2019-02-08T14:54:07.368Z,10.50
2019-02-08T14:59:12.257Z,10.50
2019-02-08T15:04:17.041Z,10.50
2019-02-08T15:09:21.842Z,10.40
2019-02-08T15:14:26.560Z,10.40
2019-02-08T15:19:32.884Z,10.40
2019-02-08T15:24:37.973Z,10.40
2019-02-08T15:29:42.987Z,10.40
2019-02-08T15:34:47.903Z,10.30
2019-02-08T15:39:53.437Z,10.30
2019-02-08T15:44:58.297Z,10.30
2019-02-08T15:50:03.616Z,10.30
2019-02-08T15:55:13.357Z,10.20
2019-02-08T16:00:23.815Z,10.20
2019-02-08T16:05:30.424Z,10.20
2019-02-08T16:10:35.296Z,10.20
2019-02-08T16:15:40.541Z,10.10
2019-02-08T16:20:46.572Z,10.20
2019-02-08T16:25:51.868Z,10.10
2019-02-08T16:30:58.400Z,10.20
2019-02-08T16:36:03.668Z,10.10
2019-02-08T16:41:11.386Z,10.20
2019-02-08T16:46:17.679Z,10.20
2019-02-08T16:51:22.767Z,10.20
2019-02-08T16:56:27.478Z,10.20
2019-02-08T17:01:32.341Z,10.20
2019-02-08T17:06:37.261Z,10.20
2019-02-08T17:11:42.099Z,10.20
2019-02-08T17:16:47.686Z,10.20
2019-02-08T17:21:52.457Z,10.10
2019-02-08T17:26:57.370Z,10.10
2019-02-08T17:32:02.165Z,10.10
2019-02-08T17:37:07.311Z,10.10
2019-02-08T17:42:12.445Z,10.10
2019-02-08T17:47:17.356Z,10.10
2019-02-08T17:52:22.208Z,10.10
2019-02-08T17:57:26.969Z,10.10
2019-02-08T18:02:36.126Z,10.00
2019-02-08T18:07:41.171Z,10.10
2019-02-08T18:12:45.940Z,10.10
2019-02-08T18:17:51.045Z,10.10
2019-02-08T18:22:55.844Z,10.10
2019-02-08T18:28:00.673Z,10.00
2019-02-08T18:33:05.726Z,10.00
2019-02-08T18:38:10.597Z,10.00
2019-02-08T18:43:15.380Z,10.00
2019-02-08T18:48:20.241Z,10.00
2019-02-08T18:53:25.826Z,10.10
2019-02-08T18:58:30.528Z,10.00
2019-02-08T19:03:36.501Z,10.10
2019-02-08T19:08:41.224Z,10.10
2019-02-08T19:13:46.195Z,10.10
2019-02-08T19:18:52.932Z,10.10
2019-02-08T19:23:59.014Z,10.00
2019-02-08T19:29:03.782Z,10.10
2019-02-08T19:34:10.564Z,10.10
2019-02-08T19:39:15.412Z,10.10
2019-02-08T19:44:20.792Z,10.10
2019-02-08T19:49:25.651Z,10.20
2019-02-08T19:54:30.441Z,10.20
2019-02-08T19:59:35.372Z,10.20
2019-02-08T20:04:41.121Z,10.20
2019-02-08T20:09:46.243Z,10.30
2019-02-08T20:14:53.327Z,10.30
2019-02-08T20:19:58.130Z,10.30
2019-02-08T20:25:03.137Z,10.30
2019-02-08T20:35:56.744Z,10.30
2019-02-08T20:41:03.207Z,10.70
2019-02-08T20:46:09.324Z,10.70
2019-02-08T20:51:15.247Z,10.60
2019-02-08T20:56:20.651Z,10.50
2019-02-08T21:01:25.728Z,10.50
2019-02-08T21:06:31.168Z,10.50
2019-02-08T21:11:37.001Z,10.40
2019-02-08T21:16:43.889Z,10.40
2019-02-08T21:21:53.104Z,10.40
2019-02-08T21:26:57.881Z,10.40
2019-02-08T21:32:02.653Z,10.30
2019-02-08T21:37:07.736Z,10.30
2019-02-08T21:42:13.582Z,10.30
2019-02-08T21:47:18.368Z,10.30
2019-02-08T21:52:23.111Z,10.30
2019-02-08T21:57:28.618Z,10.30
2019-02-08T22:02:34.084Z,10.30
2019-02-08T22:07:38.737Z,10.30
2019-02-08T22:12:43.504Z,10.20
2019-02-08T22:17:49.295Z,10.30
2019-02-08T22:22:54.276Z,10.30
2019-02-08T22:27:59.198Z,10.20
2019-02-08T22:33:04.630Z,10.20
2019-02-08T22:38:10.526Z,10.20
2019-02-08T22:43:16.723Z,10.30
2019-02-08T22:48:21.887Z,10.20
2019-02-08T22:53:26.565Z,10.20
2019-02-08T22:58:33.200Z,10.20
2019-02-08T23:03:39.648Z,10.20
2019-02-08T23:08:44.655Z,10.20
2019-02-08T23:13:49.507Z,10.20
2019-02-08T23:18:54.260Z,10.20
2019-02-08T23:23:59.076Z,10.10
2019-02-08T23:29:04.215Z,10.20
2019-02-08T23:34:09.077Z,10.10
2019-02-08T23:39:15.976Z,10.10
2019-02-08T23:44:21.077Z,10.00
2019-02-08T23:49:25.860Z,10.10
2019-02-08T23:54:30.820Z,10.10
2019-02-08T23:59:38.183Z,10.10
